Time;durP1;ratioP1;P1;durP2;ratioP2;P2;SDS_P1;SDS_P2;PMS_P1;PMS_P2;Temp;Humidity;BMP_temperature;BMP_pressure;BME280_temperature;BME280_humidity;BME280_pressure;Samples;Min_cycle;Max_cycle;Signal;HPM_P1;HPM_P2
2022/01/06 00:01:35;;;;;;;1.20;1.00;;;3.70;98.00;;;;;;5051361;28;20488;-67
2022/01/06 00:04:02;;;;;;;1.30;1.20;;;3.60;98.00;;;;;;5051406;28;20496;-67
2022/01/06 00:06:30;;;;;;;1.10;0.90;;;3.60;98.00;;;;;;5050213;28;20610;-67
2022/01/06 00:08:59;;;;;;;1.10;1.00;;;3.60;98.00;;;;;;5053848;28;20507;-67
2022/01/06 00:11:26;;;;;;;1.10;1.00;;;3.60;98.00;;;;;;5053256;28;20453;-67
2022/01/06 00:13:59;;;;;;;1.10;1.00;;;3.70;98.00;;;;;;5054714;28;20454;-67
2022/01/06 00:16:36;;;;;;;1.20;1.00;;;3.70;98.00;;;;;;5054285;28;20457;-67
2022/01/06 00:24:32;;;;;;;1.53;1.30;;;3.50;98.00;;;;;;5054359;28;20472;-67
2022/01/06 00:26:59;;;;;;;1.20;1.00;;;3.50;98.00;;;;;;5054499;28;20450;-67
2022/01/06 00:29:26;;;;;;;1.10;0.90;;;3.40;98.00;;;;;;5054097;28;20489;-67
2022/01/06 00:31:54;;;;;;;1.47;1.10;;;3.40;98.00;;;;;;5054208;28;20548;-67
2022/01/06 00:34:21;;;;;;;1.57;1.33;;;3.30;98.00;;;;;;5052920;28;21062;-67
2022/01/06 00:36:49;;;;;;;1.20;1.10;;;3.40;98.00;;;;;;5052998;28;20523;-67
2022/01/06 00:39:16;;;;;;;1.10;1.00;;;3.30;98.00;;;;;;5053963;28;20564;-67
2022/01/06 00:41:43;;;;;;;1.10;0.97;;;3.40;98.00;;;;;;5052931;28;20508;-67
2022/01/06 00:44:10;;;;;;;1.10;1.00;;;3.40;98.00;;;;;;5054000;28;20886;-67
2022/01/06 00:46:37;;;;;;;1.10;1.00;;;3.40;98.00;;;;;;5054141;28;20490;-67
2022/01/06 00:49:05;;;;;;;1.53;1.43;;;3.40;98.00;;;;;;5052750;28;20581;-67
2022/01/06 00:51:32;;;;;;;1.10;1.00;;;3.40;98.00;;;;;;5053965;28;20495;-67
2022/01/06 00:53:59;;;;;;;1.10;1.00;;;3.30;98.00;;;;;;5053936;28;20926;-67
2022/01/06 00:56:26;;;;;;;1.10;1.00;;;3.40;98.00;;;;;;5052750;28;20489;-67
2022/01/06 00:58:53;;;;;;;1.10;1.10;;;3.30;98.00;;;;;;5052620;28;20536;-67
2022/01/06 01:01:21;;;;;;;1.20;1.20;;;3.30;98.00;;;;;;5053306;28;20536;-67
2022/01/06 01:03:48;;;;;;;1.10;1.00;;;3.20;98.00;;;;;;5053467;28;20991;-67
2022/01/06 01:06:16;;;;;;;1.10;1.00;;;3.20;98.00;;;;;;5054191;28;20536;-67
2022/01/06 01:08:43;;;;;;;1.10;1.10;;;3.30;98.00;;;;;;5053623;28;20544;-67
2022/01/06 01:11:10;;;;;;;1.10;1.00;;;3.40;98.00;;;;;;5053529;28;20513;-67
2022/01/06 01:13:54;;;;;;;1.20;1.10;;;3.40;98.00;;;;;;5053705;28;20495;-67
2022/01/06 01:16:24;;;;;;;1.10;0.97;;;3.30;98.00;;;;;;5053718;28;21083;-67
2022/01/06 01:18:56;;;;;;;1.10;1.10;;;3.40;98.00;;;;;;5053175;28;20460;-67
2022/01/06 01:21:27;;;;;;;1.10;0.90;;;3.40;98.00;;;;;;5053406;28;20454;-67
2022/01/06 01:23:55;;;;;;;1.10;1.00;;;3.50;98.00;;;;;;5053475;28;20454;-67
2022/01/06 01:26:22;;;;;;;1.83;1.40;;;3.50;98.00;;;;;;5053566;28;20467;-67
2022/01/06 01:28:50;;;;;;;2.57;1.47;;;3.40;98.00;;;;;;5053499;28;20449;-67
2022/01/06 01:31:25;;;;;;;1.10;1.10;;;3.40;98.00;;;;;;5053582;28;20998;-67
2022/01/06 01:33:55;;;;;;;1.10;1.00;;;3.40;98.00;;;;;;5053094;28;20464;-67
2022/01/06 01:36:24;;;;;;;1.10;1.00;;;3.40;98.00;;;;;;5052875;28;20458;-67
2022/01/06 01:38:51;;;;;;;1.10;1.00;;;3.40;98.00;;;;;;5052885;28;20493;-67
2022/01/06 01:41:18;;;;;;;2.13;1.27;;;3.50;98.00;;;;;;5052971;28;20952;-67
2022/01/06 01:43:47;;;;;;;1.10;1.00;;;3.50;98.00;;;;;;5051695;28;20496;-67
2022/01/06 01:46:17;;;;;;;2.63;2.03;;;3.40;98.00;;;;;;5051549;28;20500;-67
2022/01/06 01:48:51;;;;;;;1.10;1.00;;;3.50;98.00;;;;;;5052716;28;20486;-67
2022/01/06 01:51:19;;;;;;;1.57;1.10;;;3.50;98.00;;;;;;5052890;28;21066;-67
2022/01/06 01:53:48;;;;;;;1.63;1.20;;;3.50;98.00;;;;;;5050968;28;20503;-67
2022/01/06 01:56:15;;;;;;;1.10;0.97;;;3.40;98.00;;;;;;5052663;28;20488;-67
2022/01/06 01:58:42;;;;;;;1.10;0.90;;;3.40;98.00;;;;;;5052664;28;20541;-67
2022/01/06 02:01:10;;;;;;;1.10;1.00;;;3.30;98.00;;;;;;5052740;28;20449;-67
2022/01/06 02:03:36;;;;;;;1.10;1.00;;;3.30;98.00;;;;;;5052742;28;20461;-67
2022/01/06 02:06:04;;;;;;;1.10;1.00;;;3.30;98.00;;;;;;5052566;28;20546;-67
2022/01/06 02:08:32;;;;;;;1.10;1.00;;;3.20;98.00;;;;;;5052643;28;20497;-67
2022/01/06 02:11:00;;;;;;;1.10;1.00;;;3.20;98.00;;;;;;5052588;28;20515;-67
2022/01/06 02:13:31;;;;;;;1.20;1.10;;;3.20;98.00;;;;;;5052394;28;20969;-67
2022/01/06 02:16:00;;;;;;;1.10;1.00;;;3.20;98.00;;;;;;5052396;28;20462;-67
2022/01/06 02:18:28;;;;;;;1.10;1.07;;;3.20;98.00;;;;;;5052385;28;20457;-67
2022/01/06 02:20:57;;;;;;;1.30;1.20;;;3.10;98.00;;;;;;5052267;28;20460;-67
2022/01/06 02:23:24;;;;;;;1.10;0.90;;;3.20;98.00;;;;;;5052192;28;20488;-67
2022/01/06 02:25:51;;;;;;;1.10;1.00;;;3.10;98.00;;;;;;5052161;28;20520;-67
2022/01/06 02:28:19;;;;;;;1.10;1.00;;;3.10;98.00;;;;;;5052296;28;20960;-67
2022/01/06 02:30:50;;;;;;;1.10;0.90;;;3.10;98.00;;;;;;5051499;28;21058;-67
2022/01/06 02:33:18;;;;;;;1.10;1.00;;;3.20;98.00;;;;;;5051868;28;20450;-67
2022/01/06 02:35:45;;;;;;;1.10;0.97;;;3.30;98.00;;;;;;5052199;28;20515;-67
2022/01/06 02:38:13;;;;;;;1.10;0.90;;;3.40;98.00;;;;;;5052073;28;21047;-67
2022/01/06 02:40:41;;;;;;;1.10;1.00;;;3.50;98.00;;;;;;5051901;28;20523;-67
2022/01/06 02:43:07;;;;;;;1.23;1.17;;;3.50;98.00;;;;;;5052082;28;20871;-67
2022/01/06 02:45:36;;;;;;;1.10;1.00;;;3.50;98.00;;;;;;5052079;28;20522;-67
2022/01/06 02:48:08;;;;;;;1.10;0.90;;;3.50;98.00;;;;;;5051954;28;20808;-67
2022/01/06 02:50:38;;;;;;;1.10;1.00;;;3.50;98.00;;;;;;5051994;28;21006;-67
2022/01/06 02:53:06;;;;;;;1.10;0.90;;;3.60;98.00;;;;;;5052160;28;20544;-67
2022/01/06 02:55:34;;;;;;;1.10;1.00;;;3.60;98.00;;;;;;5051831;28;20964;-67
2022/01/06 02:58:02;;;;;;;1.27;1.20;;;3.60;98.00;;;;;;5051508;28;20489;-67
2022/01/06 03:00:29;;;;;;;1.10;0.90;;;3.60;98.00;;;;;;5051872;28;20481;-67
2022/01/06 03:02:57;;;;;;;1.10;1.10;;;3.50;98.00;;;;;;5051526;28;20461;-67
2022/01/06 03:05:25;;;;;;;1.10;1.00;;;3.40;98.00;;;;;;5051372;28;20462;-67
2022/01/06 03:07:52;;;;;;;1.20;1.20;;;3.40;98.00;;;;;;5051796;28;21028;-67
2022/01/06 03:10:19;;;;;;;1.10;1.00;;;3.40;98.00;;;;;;5051566;28;20521;-67
2022/01/06 03:12:48;;;;;;;1.10;1.00;;;3.40;98.00;;;;;;5051435;28;20492;-67
2022/01/06 03:15:17;;;;;;;1.10;1.00;;;3.50;98.00;;;;;;5051613;28;20478;-67
2022/01/06 03:17:46;;;;;;;1.10;1.00;;;3.40;98.00;;;;;;5051511;28;20489;-67
2022/01/06 03:20:16;;;;;;;1.60;1.10;;;3.50;98.00;;;;;;5051452;28;20485;-67
2022/01/06 03:22:44;;;;;;;1.10;0.90;;;3.50;98.00;;;;;;5051273;28;20496;-67
2022/01/06 03:25:12;;;;;;;1.83;1.43;;;3.50;98.00;;;;;;5051555;28;20490;-67
2022/01/06 03:27:42;;;;;;;3.20;2.33;;;3.50;98.00;;;;;;5051287;28;20507;-67
2022/01/06 03:30:14;;;;;;;1.10;1.00;;;3.60;98.00;;;;;;5051238;28;20620;-67
2022/01/06 03:32:41;;;;;;;1.13;1.13;;;3.60;98.00;;;;;;5051229;28;20481;-67
2022/01/06 03:35:15;;;;;;;1.10;0.97;;;3.60;98.00;;;;;;5051382;28;20480;-67
2022/01/06 03:37:42;;;;;;;1.10;1.00;;;3.60;98.00;;;;;;5051095;28;20511;-67
2022/01/06 03:40:11;;;;;;;1.10;1.10;;;3.50;98.00;;;;;;5051204;28;20558;-67
2022/01/06 03:42:38;;;;;;;1.87;1.83;;;3.50;98.00;;;;;;5052051;28;20460;-67
2022/01/06 03:45:09;;;;;;;1.67;1.27;;;3.50;98.00;;;;;;5055216;28;20497;-67
2022/01/06 03:47:37;;;;;;;1.10;1.00;;;3.60;98.00;;;;;;5055104;28;20490;-67
2022/01/06 03:50:05;;;;;;;1.10;1.00;;;3.60;98.00;;;;;;5055167;28;20517;-67
2022/01/06 03:52:33;;;;;;;1.10;1.00;;;3.60;98.00;;;;;;5055158;28;20495;-67
2022/01/06 03:55:07;;;;;;;1.57;1.40;;;3.60;98.00;;;;;;5055356;28;20544;-67
2022/01/06 03:57:35;;;;;;;1.10;1.00;;;3.60;98.00;;;;;;5055010;28;20457;-67
2022/01/06 04:00:03;;;;;;;1.10;1.00;;;3.60;98.00;;;;;;5055142;28;20467;-67
2022/01/06 04:02:30;;;;;;;1.10;1.00;;;3.60;98.00;;;;;;5054972;28;20522;-67
2022/01/06 04:04:58;;;;;;;1.10;1.00;;;3.70;98.00;;;;;;5055116;28;20477;-67
2022/01/06 04:07:25;;;;;;;1.10;1.00;;;3.70;98.00;;;;;;5054855;28;20545;-67
2022/01/06 04:09:52;;;;;;;1.10;1.00;;;3.50;98.00;;;;;;5053941;28;20547;-67
2022/01/06 04:12:19;;;;;;;1.30;1.20;;;3.50;98.00;;;;;;5054159;28;21026;-67
2022/01/06 04:14:47;;;;;;;3.33;2.07;;;3.40;98.00;;;;;;5054448;28;20458;-67
2022/01/06 04:17:14;;;;;;;1.70;1.37;;;3.50;98.00;;;;;;5055102;28;20458;-67
2022/01/06 04:19:41;;;;;;;1.10;0.90;;;3.50;98.00;;;;;;5054943;28;20856;-67
2022/01/06 04:22:09;;;;;;;1.10;1.00;;;3.40;98.00;;;;;;5054708;28;20870;-67
2022/01/06 04:24:36;;;;;;;1.67;1.47;;;3.40;98.00;;;;;;5054848;28;20492;-67
2022/01/06 04:27:04;;;;;;;1.10;1.00;;;3.40;98.00;;;;;;5054433;28;20488;-67
2022/01/06 04:29:31;;;;;;;1.87;1.40;;;3.40;98.00;;;;;;5054423;28;20454;-67
2022/01/06 04:31:58;;;;;;;1.10;1.00;;;3.40;98.00;;;;;;5054387;28;20571;-67
2022/01/06 04:34:25;;;;;;;1.43;1.40;;;3.40;98.00;;;;;;5054329;28;20477;-67
2022/01/06 04:36:55;;;;;;;1.10;1.00;;;3.40;98.00;;;;;;5053997;28;21158;-67
2022/01/06 04:39:23;;;;;;;1.10;1.00;;;3.40;98.00;;;;;;5053269;28;20458;-67
2022/01/06 04:41:51;;;;;;;1.10;1.00;;;3.40;98.00;;;;;;5054123;28;20457;-67
2022/01/06 04:44:19;;;;;;;1.10;1.00;;;3.40;98.00;;;;;;5054060;28;20485;-67
2022/01/06 04:46:46;;;;;;;1.10;1.07;;;3.50;98.00;;;;;;5053977;28;20519;-67
2022/01/06 04:49:14;;;;;;;1.87;1.43;;;3.40;98.00;;;;;;5053960;28;20545;-67
2022/01/06 04:51:41;;;;;;;1.10;0.90;;;3.50;98.00;;;;;;5053476;28;20517;-67
2022/01/06 04:54:09;;;;;;;1.30;1.20;;;3.50;98.00;;;;;;5052646;28;20835;-67
2022/01/06 04:56:38;;;;;;;1.20;1.00;;;3.60;98.00;;;;;;5054279;28;20463;-67
2022/01/06 04:59:07;;;;;;;1.40;1.20;;;3.70;98.00;;;;;;5053781;28;21021;-67
2022/01/06 05:01:34;;;;;;;2.90;1.70;;;3.70;98.00;;;;;;5053738;28;21003;-67
2022/01/06 05:04:01;;;;;;;1.10;1.00;;;3.70;98.00;;;;;;5054099;28;20552;-67
2022/01/06 05:06:29;;;;;;;1.47;1.40;;;3.80;98.00;;;;;;5053783;28;20490;-67
2022/01/06 05:08:56;;;;;;;1.10;0.90;;;3.90;98.00;;;;;;5052501;28;20508;-67
2022/01/06 05:11:23;;;;;;;1.10;1.00;;;3.80;98.00;;;;;;5053677;28;20520;-67
2022/01/06 05:13:52;;;;;;;1.20;1.00;;;3.80;98.00;;;;;;5053623;28;20539;-67
2022/01/06 05:16:20;;;;;;;1.30;1.13;;;3.70;98.00;;;;;;5053730;28;20470;-67
2022/01/06 05:18:46;;;;;;;1.10;1.00;;;3.70;98.00;;;;;;5053672;28;20505;-67
2022/01/06 05:21:14;;;;;;;1.10;0.90;;;3.70;98.00;;;;;;5053595;28;20497;-67
2022/01/06 05:23:41;;;;;;;1.10;1.00;;;3.80;98.00;;;;;;5053500;28;20504;-67
2022/01/06 05:26:09;;;;;;;1.10;0.93;;;3.70;98.00;;;;;;5053637;28;20538;-67
2022/01/06 05:28:36;;;;;;;1.10;1.00;;;3.70;98.00;;;;;;5053324;28;20563;-67
2022/01/06 05:31:05;;;;;;;1.10;1.00;;;3.80;98.00;;;;;;5053394;28;20900;-67
2022/01/06 05:33:32;;;;;;;1.13;1.00;;;3.80;98.00;;;;;;5053303;28;20498;-67
2022/01/06 05:35:59;;;;;;;1.10;1.00;;;3.80;98.00;;;;;;5053571;28;20842;-67
2022/01/06 05:38:27;;;;;;;1.10;1.00;;;3.80;98.00;;;;;;5053334;28;20607;-67
2022/01/06 05:40:54;;;;;;;1.10;1.00;;;3.80;98.00;;;;;;5053082;28;20498;-67
2022/01/06 05:43:21;;;;;;;1.13;1.00;;;3.80;98.00;;;;;;5052094;28;20529;-67
2022/01/06 05:45:51;;;;;;;1.20;1.10;;;3.80;98.00;;;;;;5053170;28;20462;-67
2022/01/06 05:48:19;;;;;;;1.20;1.20;;;3.90;98.00;;;;;;5053172;28;20460;-67
2022/01/06 05:50:48;;;;;;;1.10;0.90;;;3.80;98.00;;;;;;5052844;28;20923;-67
2022/01/06 05:53:15;;;;;;;1.10;0.90;;;3.80;98.00;;;;;;5052785;28;20485;-67
2022/01/06 05:55:42;;;;;;;1.10;1.00;;;3.80;98.00;;;;;;5052797;28;20474;-67
2022/01/06 05:58:09;;;;;;;1.20;1.00;;;3.80;98.00;;;;;;5052623;28;20494;-67
2022/01/06 06:00:36;;;;;;;1.13;1.00;;;3.90;98.00;;;;;;5052563;28;20458;-67
2022/01/06 06:03:03;;;;;;;1.57;1.23;;;3.90;98.00;;;;;;5052584;28;20449;-67
2022/01/06 06:05:32;;;;;;;1.40;1.10;;;3.80;98.00;;;;;;5052541;28;20462;-67
2022/01/06 06:07:59;;;;;;;1.20;1.00;;;3.80;98.00;;;;;;5052555;28;20515;-67
2022/01/06 06:10:26;;;;;;;1.10;0.90;;;3.90;98.00;;;;;;5052391;28;20932;-67
2022/01/06 06:12:53;;;;;;;1.10;1.00;;;4.00;98.00;;;;;;5052441;28;20458;-67
2022/01/06 06:15:21;;;;;;;1.17;1.00;;;4.00;98.00;;;;;;5052478;28;20458;-67
2022/01/06 06:17:48;;;;;;;1.20;1.10;;;4.00;98.00;;;;;;5052340;28;20493;-67
2022/01/06 06:20:15;;;;;;;1.20;1.00;;;4.00;98.00;;;;;;5052414;28;20486;-67
2022/01/06 06:22:46;;;;;;;1.10;1.00;;;4.00;98.00;;;;;;5052461;28;20449;-67
2022/01/06 06:25:13;;;;;;;1.20;1.10;;;4.00;98.00;;;;;;5052375;28;21108;-68
2022/01/06 06:27:41;;;;;;;1.10;1.00;;;4.00;98.00;;;;;;5052268;28;20543;-67
2022/01/06 06:30:10;;;;;;;1.10;0.90;;;4.00;98.00;;;;;;5052003;28;20454;-68
2022/01/06 06:32:37;;;;;;;1.10;1.00;;;4.00;98.00;;;;;;5052188;28;20550;-67
2022/01/06 06:35:05;;;;;;;1.20;1.00;;;4.00;98.00;;;;;;5052106;28;20500;-67
2022/01/06 06:37:33;;;;;;;1.73;1.10;;;4.00;98.00;;;;;;5052056;28;20458;-67
2022/01/06 06:40:01;;;;;;;1.10;0.90;;;4.00;98.00;;;;;;5051675;28;21118;-67
2022/01/06 06:42:29;;;;;;;1.40;1.20;;;3.90;98.00;;;;;;5052051;28;20461;-67
2022/01/06 06:44:56;;;;;;;1.10;1.00;;;3.90;98.00;;;;;;5051752;28;20524;-67
2022/01/06 06:47:24;;;;;;;1.13;1.00;;;3.90;98.00;;;;;;5051935;28;20537;-67
2022/01/06 06:49:51;;;;;;;2.00;1.90;;;3.90;98.00;;;;;;5051796;28;20557;-67
2022/01/06 06:52:18;;;;;;;2.27;1.30;;;3.90;98.00;;;;;;5051887;28;20489;-67
2022/01/06 06:54:46;;;;;;;1.20;1.20;;;4.00;98.00;;;;;;5051768;28;20571;-67
2022/01/06 06:57:15;;;;;;;1.73;1.53;;;4.00;98.00;;;;;;5034070;28;20460;-67
2022/01/06 06:59:42;;;;;;;1.10;1.00;;;4.00;98.00;;;;;;5051841;28;20489;-67
2022/01/06 07:02:09;;;;;;;1.10;0.90;;;4.00;98.00;;;;;;5051822;28;20547;-67
2022/01/06 07:04:36;;;;;;;1.30;1.20;;;3.90;98.00;;;;;;5051855;28;20462;-67
2022/01/06 07:07:03;;;;;;;1.10;1.00;;;3.80;98.00;;;;;;5052039;28;20952;-67
2022/01/06 07:09:30;;;;;;;1.10;0.90;;;3.80;98.00;;;;;;5051698;28;20556;-67
2022/01/06 07:11:57;;;;;;;1.20;1.00;;;3.80;98.00;;;;;;5051489;28;20576;-67
2022/01/06 07:14:25;;;;;;;1.53;1.27;;;3.80;98.00;;;;;;5051840;28;20454;-67
2022/01/06 07:16:52;;;;;;;1.10;0.90;;;3.90;98.00;;;;;;5052077;28;20536;-67
2022/01/06 07:19:19;;;;;;;1.10;0.90;;;3.80;98.00;;;;;;5058066;28;21027;-67
2022/01/06 07:21:47;;;;;;;1.97;1.37;;;3.70;98.00;;;;;;5058392;28;20512;-67
2022/01/06 07:24:14;;;;;;;1.10;1.00;;;3.70;98.00;;;;;;5058093;28;20500;-67
2022/01/06 07:26:41;;;;;;;1.10;0.90;;;3.70;98.00;;;;;;5058001;28;20489;-66
2022/01/06 07:29:08;;;;;;;1.23;1.13;;;3.80;98.00;;;;;;5057986;28;20483;-66
2022/01/06 07:31:37;;;;;;;1.10;1.00;;;3.80;98.00;;;;;;5058135;28;20568;-67
2022/01/06 07:34:05;;;;;;;1.10;1.00;;;3.80;98.00;;;;;;5057631;28;20532;-67
2022/01/06 07:36:33;;;;;;;1.10;1.00;;;3.80;98.00;;;;;;5057968;28;20457;-67
2022/01/06 07:39:00;;;;;;;2.00;1.40;;;3.90;98.00;;;;;;5058016;28;20618;-66
2022/01/06 07:41:27;;;;;;;1.10;1.00;;;3.80;98.00;;;;;;5057941;28;20493;-67
2022/01/06 07:43:54;;;;;;;1.17;1.00;;;3.80;98.00;;;;;;5057720;28;20517;-67
2022/01/06 07:46:21;;;;;;;1.10;0.90;;;3.90;98.00;;;;;;5057900;28;21028;-67
2022/01/06 07:48:55;;;;;;;1.30;1.10;;;3.90;98.00;;;;;;5057912;28;21015;-67
2022/01/06 07:51:23;;;;;;;1.10;1.00;;;3.90;98.00;;;;;;5057508;28;20480;-67
2022/01/06 07:53:50;;;;;;;1.10;1.00;;;3.90;98.00;;;;;;5057791;28;20473;-67
2022/01/06 07:56:17;;;;;;;1.10;1.00;;;3.90;98.00;;;;;;5057891;28;20462;-67
2022/01/06 07:58:44;;;;;;;1.10;1.00;;;4.00;98.00;;;;;;5057731;28;20975;-67
2022/01/06 08:01:12;;;;;;;1.10;1.00;;;4.10;98.00;;;;;;5057948;28;20500;-67
2022/01/06 08:03:39;;;;;;;1.53;1.13;;;4.30;98.00;;;;;;5057789;28;20545;-68
2022/01/06 08:06:07;;;;;;;1.10;0.90;;;4.40;98.00;;;;;;5057770;28;20514;-68
2022/01/06 08:08:34;;;;;;;1.27;1.10;;;4.60;98.00;;;;;;5057838;28;20895;-66
2022/01/06 08:11:01;;;;;;;1.10;0.90;;;4.60;98.00;;;;;;5057782;28;20539;-66
2022/01/06 08:13:28;;;;;;;1.20;1.00;;;4.60;98.00;;;;;;5057744;28;20547;-66
2022/01/06 08:15:55;;;;;;;1.40;1.10;;;4.60;98.00;;;;;;5057782;28;20453;-66
2022/01/06 08:18:22;;;;;;;1.10;0.97;;;4.70;98.00;;;;;;5057747;28;20988;-67
2022/01/06 08:20:49;;;;;;;1.30;1.10;;;4.70;98.00;;;;;;5057707;28;20540;-66
2022/01/06 08:23:18;;;;;;;1.20;1.10;;;4.70;98.00;;;;;;5057987;28;20540;-67
2022/01/06 08:25:45;;;;;;;1.20;1.00;;;4.70;98.00;;;;;;5057777;28;21011;-66
2022/01/06 08:28:12;;;;;;;1.20;1.10;;;4.70;98.00;;;;;;5057620;28;20523;-67
2022/01/06 08:30:39;;;;;;;1.10;1.00;;;4.70;98.00;;;;;;5053422;28;20956;-67
2022/01/06 08:33:06;;;;;;;1.20;1.00;;;4.60;98.00;;;;;;5051902;28;21011;-68
2022/01/06 08:35:33;;;;;;;1.30;1.10;;;4.60;98.00;;;;;;5040606;28;20877;-69
2022/01/06 08:38:00;;;;;;;1.20;1.00;;;4.70;98.00;;;;;;5041615;28;20461;-69
2022/01/06 08:40:29;;;;;;;1.20;1.03;;;4.70;98.00;;;;;;5040108;28;20504;-67
2022/01/06 08:42:59;;;;;;;1.20;1.10;;;4.80;98.00;;;;;;5027817;28;20458;-68
2022/01/06 08:45:26;;;;;;;1.30;1.27;;;4.80;98.00;;;;;;5032550;28;20517;-68
2022/01/06 08:47:53;;;;;;;1.30;1.10;;;5.00;98.00;;;;;;5033646;28;20558;-67
2022/01/06 08:50:20;;;;;;;1.30;1.07;;;5.10;98.00;;;;;;5046791;28;20952;-69
2022/01/06 08:52:47;;;;;;;1.20;1.00;;;5.10;98.00;;;;;;5053810;28;20539;-69
2022/01/06 08:55:14;;;;;;;1.20;0.90;;;5.10;98.00;;;;;;5052579;28;20877;-69
2022/01/06 08:57:44;;;;;;;1.30;1.30;;;5.10;98.00;;;;;;5053835;28;20455;-68
2022/01/06 09:00:12;;;;;;;1.30;1.10;;;5.20;98.00;;;;;;5051124;28;20481;-68
2022/01/06 09:02:40;;;;;;;2.13;1.60;;;5.30;98.00;;;;;;5033755;28;21019;-69
2022/01/06 09:05:10;;;;;;;1.20;1.10;;;5.30;98.00;;;;;;5021153;28;20509;-69
2022/01/06 09:07:39;;;;;;;1.20;1.10;;;5.30;98.00;;;;;;5014021;28;20536;-70
2022/01/06 09:10:07;;;;;;;1.20;1.10;;;5.50;98.00;;;;;;5013400;28;20587;-69
2022/01/06 09:12:37;;;;;;;1.20;1.20;;;5.50;98.00;;;;;;5012352;28;20577;-67
2022/01/06 09:15:08;;;;;;;1.30;1.27;;;5.50;98.00;;;;;;5013321;28;20460;-68
2022/01/06 09:17:36;;;;;;;1.20;0.90;;;5.60;98.00;;;;;;5013113;28;20464;-68
2022/01/06 09:20:05;;;;;;;1.20;1.00;;;5.50;98.00;;;;;;5013190;28;20455;-70
2022/01/06 09:22:32;;;;;;;2.40;1.13;;;5.60;98.00;;;;;;5013724;28;20464;-68
2022/01/06 09:24:59;;;;;;;1.27;0.97;;;5.60;98.00;;;;;;5033553;28;20497;-69
2022/01/06 09:27:29;;;;;;;7.43;1.93;;;5.60;98.00;;;;;;5033408;28;20475;-70
2022/01/06 09:29:57;;;;;;;1.20;1.00;;;5.70;98.00;;;;;;5033640;28;20536;-70
2022/01/06 09:32:25;;;;;;;1.30;1.20;;;5.60;98.00;;;;;;5020312;28;20585;-69
2022/01/06 09:34:55;;;;;;;3.70;1.83;;;5.50;98.00;;;;;;5013557;28;20975;-68
2022/01/06 09:37:22;;;;;;;1.20;1.00;;;5.50;98.00;;;;;;5012489;28;20496;-70
2022/01/06 09:39:51;;;;;;;1.43;1.30;;;5.50;98.00;;;;;;5013209;28;20463;-69
2022/01/06 09:42:19;;;;;;;3.93;1.87;;;5.40;98.00;;;;;;5012214;28;20867;-68
2022/01/06 09:44:51;;;;;;;1.20;1.00;;;5.30;98.00;;;;;;5013419;28;20515;-70
2022/01/06 09:47:19;;;;;;;1.20;1.00;;;5.20;98.00;;;;;;5013466;28;20460;-70
2022/01/06 09:49:49;;;;;;;1.30;1.00;;;5.20;98.00;;;;;;5013388;28;20459;-68
2022/01/06 09:52:24;;;;;;;1.20;1.13;;;5.30;98.00;;;;;;5011993;28;20962;-68
2022/01/06 09:54:51;;;;;;;1.17;1.00;;;5.30;98.00;;;;;;5013148;28;20862;-66
2022/01/06 09:57:19;;;;;;;1.20;0.90;;;5.50;98.00;;;;;;5013453;28;20525;-70
2022/01/06 09:59:46;;;;;;;1.20;1.10;;;5.50;98.00;;;;;;5013134;28;20966;-70
2022/01/06 10:02:16;;;;;;;1.20;1.00;;;5.50;98.00;;;;;;5013246;28;20467;-71
2022/01/06 10:04:45;;;;;;;1.20;1.20;;;5.30;98.00;;;;;;5027192;28;20457;-72
2022/01/06 10:07:21;;;;;;;1.50;1.10;;;5.40;98.00;;;;;;5040289;28;20463;-68
2022/01/06 10:09:48;;;;;;;1.20;1.00;;;5.50;98.00;;;;;;5032513;28;20501;-69
2022/01/06 10:12:15;;;;;;;1.70;1.03;;;5.30;98.00;;;;;;5032514;28;20950;-70
2022/01/06 10:14:45;;;;;;;1.20;1.00;;;5.20;98.00;;;;;;5032049;28;20565;-70
2022/01/06 10:17:14;;;;;;;1.20;1.00;;;5.30;98.00;;;;;;5032373;28;20970;-70
2022/01/06 10:19:42;;;;;;;1.20;1.00;;;5.30;98.00;;;;;;5032302;28;20465;-71
2022/01/06 10:22:16;;;;;;;1.30;1.27;;;5.30;98.00;;;;;;5032437;28;20867;-70
2022/01/06 10:24:45;;;;;;;1.93;1.50;;;5.40;98.00;;;;;;5032066;28;20495;-71
2022/01/06 10:27:15;;;;;;;1.17;0.90;;;5.50;98.00;;;;;;5032415;28;20459;-70
2022/01/06 10:29:45;;;;;;;1.93;1.33;;;5.50;98.00;;;;;;5032298;28;20509;-71
2022/01/06 10:32:14;;;;;;;1.20;1.00;;;5.60;98.00;;;;;;5032233;28;20521;-69
2022/01/06 10:34:43;;;;;;;1.43;1.40;;;5.60;98.00;;;;;;5032096;28;20872;-71
2022/01/06 10:37:24;;;;;;;1.20;1.00;;;5.60;98.00;;;;;;5032183;28;20458;-69
2022/01/06 10:39:57;;;;;;;1.20;1.10;;;5.70;98.00;;;;;;5032002;28;20528;-70
2022/01/06 10:42:24;;;;;;;2.07;1.10;;;5.60;98.00;;;;;;5032096;28;20451;-71
2022/01/06 10:44:54;;;;;;;1.50;1.40;;;5.60;98.00;;;;;;5032301;28;20491;-71
2022/01/06 10:47:32;;;;;;;1.20;1.00;;;5.50;98.00;;;;;;5032123;28;20487;-69
2022/01/06 10:50:15;;;;;;;1.40;1.20;;;5.40;98.00;;;;;;5031410;28;20924;-70
2022/01/06 10:52:46;;;;;;;1.20;1.00;;;5.30;98.00;;;;;;5028937;28;20876;-69
2022/01/06 10:55:16;;;;;;;1.20;1.00;;;5.20;98.00;;;;;;5031207;28;20545;-70
2022/01/06 10:57:55;;;;;;;1.47;1.10;;;5.20;98.00;;;;;;5031178;28;20529;-70
2022/01/06 11:00:24;;;;;;;1.20;1.00;;;5.40;98.00;;;;;;5031078;28;20459;-72
2022/01/06 11:02:51;;;;;;;1.20;1.00;;;5.50;98.00;;;;;;5031079;28;20478;-69
2022/01/06 11:05:18;;;;;;;1.20;1.10;;;5.50;98.00;;;;;;5029975;28;20467;-69
2022/01/06 11:07:46;;;;;;;1.20;0.90;;;5.40;98.00;;;;;;5030961;28;20451;-72
2022/01/06 11:10:20;;;;;;;1.20;1.00;;;5.30;98.00;;;;;;5031025;28;20478;-70
2022/01/06 11:12:49;;;;;;;1.20;1.03;;;5.50;98.00;;;;;;5030918;28;20482;-70
2022/01/06 11:15:17;;;;;;;1.20;1.10;;;5.40;98.00;;;;;;5030887;28;20521;-70
2022/01/06 11:17:48;;;;;;;1.27;1.10;;;5.40;98.00;;;;;;5030965;28;20450;-71
2022/01/06 11:20:22;;;;;;;1.20;1.00;;;5.50;98.00;;;;;;5029734;28;20945;-70
2022/01/06 11:22:53;;;;;;;1.20;1.10;;;5.60;98.00;;;;;;5030925;28;20996;-74
2022/01/06 11:25:30;;;;;;;1.50;1.13;;;5.70;98.00;;;;;;5031129;28;20459;-70
2022/01/06 11:28:06;;;;;;;1.20;1.10;;;5.60;98.00;;;;;;5031099;28;20517;-70
2022/01/06 11:30:42;;;;;;;1.20;1.10;;;5.70;98.00;;;;;;5029638;28;20964;-69
2022/01/06 11:33:09;;;;;;;1.20;1.13;;;5.50;98.00;;;;;;5030804;28;20818;-69
2022/01/06 11:35:51;;;;;;;1.20;1.00;;;5.60;98.00;;;;;;5030899;28;20450;-70
2022/01/06 11:38:23;;;;;;;1.77;1.37;;;5.60;98.00;;;;;;5030709;28;20550;-69
2022/01/06 11:40:52;;;;;;;1.20;1.00;;;5.50;98.00;;;;;;5030660;28;20459;-69
2022/01/06 11:43:20;;;;;;;1.20;0.90;;;5.50;98.00;;;;;;5029585;28;20516;-69
2022/01/06 11:45:49;;;;;;;1.57;1.27;;;5.60;98.00;;;;;;5030641;28;20512;-70
2022/01/06 11:48:17;;;;;;;1.20;1.00;;;5.60;98.00;;;;;;5030584;28;20482;-69
2022/01/06 11:50:46;;;;;;;1.20;1.00;;;5.30;98.00;;;;;;5030727;28;20926;-69
2022/01/06 11:53:16;;;;;;;1.30;1.10;;;5.30;98.00;;;;;;5030428;28;20544;-70
2022/01/06 11:55:45;;;;;;;1.53;1.10;;;5.20;98.00;;;;;;5030622;28;20457;-70
2022/01/06 11:58:14;;;;;;;1.93;1.53;;;5.10;98.00;;;;;;5030548;28;20455;-70
2022/01/06 12:00:54;;;;;;;1.20;1.00;;;5.00;98.00;;;;;;5030482;28;20952;-69
2022/01/06 12:03:21;;;;;;;1.20;1.00;;;4.60;98.00;;;;;;5030914;28;20455;-70
2022/01/06 12:05:51;;;;;;;1.37;1.20;;;4.30;98.00;;;;;;5034301;28;20490;-70
2022/01/06 12:08:20;;;;;;;1.20;0.90;;;4.30;98.00;;;;;;5034066;28;20454;-69
2022/01/06 12:10:51;;;;;;;1.20;0.93;;;4.20;98.00;;;;;;5034127;28;20489;-70
2022/01/06 12:13:20;;;;;;;1.57;1.27;;;4.30;98.00;;;;;;5032770;28;21019;-70
2022/01/06 12:15:49;;;;;;;1.30;1.10;;;4.30;98.00;;;;;;5033879;28;20482;-70
2022/01/06 12:18:20;;;;;;;1.20;0.90;;;4.30;98.00;;;;;;5033964;28;20458;-70
2022/01/06 12:20:48;;;;;;;1.20;1.00;;;4.30;98.00;;;;;;5034085;28;21051;-70
2022/01/06 12:23:15;;;;;;;1.20;1.07;;;4.40;98.00;;;;;;5034330;28;20508;-70
2022/01/06 12:25:47;;;;;;;1.50;1.20;;;4.50;98.00;;;;;;5034223;28;20552;-69
2022/01/06 12:28:16;;;;;;;1.20;0.90;;;4.50;98.00;;;;;;5034169;28;20458;-70
2022/01/06 12:30:43;;;;;;;1.20;1.00;;;4.60;98.00;;;;;;5034018;28;20466;-71
2022/01/06 12:33:10;;;;;;;1.40;1.10;;;4.70;98.00;;;;;;5033863;28;20569;-70
2022/01/06 12:35:48;;;;;;;1.30;1.10;;;4.90;98.00;;;;;;5034080;28;20454;-70
2022/01/06 12:38:22;;;;;;;1.20;1.00;;;5.00;98.00;;;;;;5033988;28;20469;-70
2022/01/06 12:40:49;;;;;;;1.20;1.00;;;5.10;98.00;;;;;;5033893;28;20465;-70
2022/01/06 12:43:25;;;;;;;1.20;1.00;;;5.50;98.00;;;;;;5033921;28;20514;-69
2022/01/06 12:46:03;;;;;;;1.20;1.00;;;5.70;98.00;;;;;;5032737;28;20472;-70
2022/01/06 12:48:33;;;;;;;1.20;1.00;;;5.80;98.00;;;;;;5034010;28;20512;-71
2022/01/06 12:51:00;;;;;;;1.30;1.20;;;5.60;98.00;;;;;;5034062;28;20507;-70
2022/01/06 12:53:29;;;;;;;1.20;1.00;;;5.50;98.00;;;;;;5034044;28;20541;-70
2022/01/06 12:55:59;;;;;;;1.20;1.00;;;5.40;98.00;;;;;;5033822;28;20541;-69
2022/01/06 12:58:31;;;;;;;1.20;1.00;;;5.30;98.00;;;;;;5033853;28;20454;-70
2022/01/06 13:01:02;;;;;;;1.30;1.20;;;5.30;98.00;;;;;;5033591;28;20961;-70
2022/01/06 13:03:31;;;;;;;1.20;1.10;;;5.40;98.00;;;;;;5033446;28;20467;-69
2022/01/06 13:05:59;;;;;;;1.20;1.10;;;5.40;98.00;;;;;;5033542;28;20514;-71
2022/01/06 13:08:26;;;;;;;1.20;1.00;;;5.40;98.00;;;;;;5033376;28;20508;-68
2022/01/06 13:11:07;;;;;;;1.20;1.00;;;5.50;98.00;;;;;;5033244;28;20943;-68